Impacts METAR Board
IDs:

KPHL - Philadelphia Intl, PA, US

Updated at: 0600 UTC 24 Jan 2019
Potential Impact None Slight Moderate High
Time 23/18Z 23/19Z 23/20Z 23/21Z 23/22Z 23/23Z 24/00Z 24/01Z 24/02Z 24/03Z 24/04Z 24/05Z 24/06Z
Temp42 45 47 47 47 44 46 46 48 50 53 53 53
Dewpt23 27 30 33 35 35 36 38 41 44 46 48 48
Altim30.22 30.18 30.15 30.11 30.08 30.06 30.03 30.01 29.98 29.95 29.93 29.91 29.88
VIS10 10 10 10 10 10 10 10 10 10 10 10 10
CIG37 95 49 55 55 250 250 55 150 65 23 25 22
CoverBKNBKNOVCBKNOVCBKNBKNOVCOVCOVCOVCOVCOVC
FltCatVFRVFRVFRVFRVFRVFRVFRVFRVFRVFRMVFRMVFRMVFR
WX--------------------------
WDir2002202101901901601700200200200180190
WSpd8 6 5 5 6 4 4 3 8 9 12 10 8
WGst-- -- -- -- -- -- -- -- -- -- -- -- --
Raw hourly METARs
KPHL 231754Z 20008KT 10SM BKN037 BKN090 BKN250 06/M05 A3022 RMK AO2 SLP233 T00561050 10056 20000 58035
KPHL 231854Z 22006KT 10SM FEW042 SCT055 BKN095 BKN250 07/M03 A3018 RMK AO2 SLP220 T00721028
KPHL 231954Z 21005KT 10SM OVC049 08/M01 A3015 RMK AO2 SLP207 T00831011
KPHL 232054Z 19005KT 10SM FEW046 BKN055 BKN250 08/01 A3011 RMK AO2 SLP195 T00830006 56038 $
KPHL 232154Z 19006KT 10SM BKN055 OVC250 08/02 A3008 RMK AO2 SLP184 T00830017 $
KPHL 232254Z 16004KT 10SM SCT055 BKN250 07/02 A3006 RMK AO2 SLP177 T00670017 $
KPHL 232354Z 17004KT 10SM FEW050 BKN250 08/02 A3003 RMK AO2 SLP167 T00780022 10089 20056 56028 $
KPHL 240054Z VRB03KT 10SM BKN055 OVC250 08/03 A3001 RMK AO2 SLP162 T00780033 $
KPHL 240154Z 20008KT 10SM SCT070 BKN150 OVC250 09/05 A2998 RMK AO2 SLP151 T00890050 $
KPHL 240254Z 20009KT 10SM BKN065 OVC140 10/07 A2995 RMK AO2 SLP143 T01000067 58024 $
KPHL 240401Z 20012KT 10SM BKN023 OVC045 12/08 A2993 RMK AO2 T01170078 $
KPHL 240454Z 18010KT 10SM BKN025 OVC055 12/09 A2991 RMK AO2 RAB26E43 SLP129 P0001 T01170089 401171022 $
KPHL 240554Z 19008KT 10SM OVC022 12/09 A2988 RMK AO2 SLP117 P0001 60002 T01170089 10122 20050 58026 $



Page loaded:  06:11 UTC  |   10:11 PM Pacific  |   11:11 PM Mountain  |   12:11 AM Central  |   01:11 AM Eastern

 

ADVISORIES

FORECASTS

FORECASTS

OBSERVATIONS

USER TOOLS

ABOUT US